sensor_id;sensor_type;location;lat;lon;timestamp;P1;durP1;ratioP1;P2;durP2;ratioP2
74320;SDS011;62738;45.772;4.804;2022-08-19T00:01:54;4.13;;;3.30;;
74320;SDS011;62738;45.772;4.804;2022-08-19T00:04:44;5.88;;;3.00;;
74320;SDS011;62738;45.772;4.804;2022-08-19T00:07:34;4.65;;;2.85;;
74320;SDS011;62738;45.772;4.804;2022-08-19T00:10:21;3.47;;;2.60;;
74320;SDS011;62738;45.772;4.804;2022-08-19T00:13:08;4.63;;;2.88;;
74320;SDS011;62738;45.772;4.804;2022-08-19T00:15:56;4.28;;;3.25;;
74320;SDS011;62738;45.772;4.804;2022-08-19T00:18:45;5.45;;;3.33;;
74320;SDS011;62738;45.772;4.804;2022-08-19T00:21:32;6.60;;;3.00;;
74320;SDS011;62738;45.772;4.804;2022-08-19T00:24:23;4.20;;;2.88;;
74320;SDS011;62738;45.772;4.804;2022-08-19T00:27:11;4.05;;;2.78;;
74320;SDS011;62738;45.772;4.804;2022-08-19T00:30:12;4.07;;;2.90;;
74320;SDS011;62738;45.772;4.804;2022-08-19T00:32:59;4.63;;;3.10;;
74320;SDS011;62738;45.772;4.804;2022-08-19T00:35:46;5.03;;;3.53;;
74320;SDS011;62738;45.772;4.804;2022-08-19T00:38:41;4.55;;;3.38;;
74320;SDS011;62738;45.772;4.804;2022-08-19T00:41:29;4.70;;;3.15;;
74320;SDS011;62738;45.772;4.804;2022-08-19T00:44:19;7.00;;;3.00;;
74320;SDS011;62738;45.772;4.804;2022-08-19T00:47:12;3.78;;;2.80;;
74320;SDS011;62738;45.772;4.804;2022-08-19T00:50:02;5.78;;;3.22;;
74320;SDS011;62738;45.772;4.804;2022-08-19T00:52:50;5.32;;;2.83;;
74320;SDS011;62738;45.772;4.804;2022-08-19T00:55:38;3.95;;;2.75;;
74320;SDS011;62738;45.772;4.804;2022-08-19T00:58:27;5.07;;;2.67;;
74320;SDS011;62738;45.772;4.804;2022-08-19T01:01:16;4.85;;;2.90;;
74320;SDS011;62738;45.772;4.804;2022-08-19T01:04:03;4.45;;;2.80;;
74320;SDS011;62738;45.772;4.804;2022-08-19T01:06:51;5.32;;;2.83;;
74320;SDS011;62738;45.772;4.804;2022-08-19T01:09:37;3.15;;;2.67;;
74320;SDS011;62738;45.772;4.804;2022-08-19T01:12:25;5.15;;;2.80;;
74320;SDS011;62738;45.772;4.804;2022-08-19T01:15:12;3.72;;;2.90;;
74320;SDS011;62738;45.772;4.804;2022-08-19T01:18:04;3.88;;;3.03;;
74320;SDS011;62738;45.772;4.804;2022-08-19T01:20:55;5.03;;;2.70;;
74320;SDS011;62738;45.772;4.804;2022-08-19T01:23:48;3.65;;;2.55;;
74320;SDS011;62738;45.772;4.804;2022-08-19T01:26:41;3.20;;;2.67;;
74320;SDS011;62738;45.772;4.804;2022-08-19T01:29:32;3.50;;;2.63;;
74320;SDS011;62738;45.772;4.804;2022-08-19T01:32:19;3.03;;;2.30;;
74320;SDS011;62738;45.772;4.804;2022-08-19T01:35:20;4.82;;;2.63;;
74320;SDS011;62738;45.772;4.804;2022-08-19T01:38:17;4.10;;;2.35;;
74320;SDS011;62738;45.772;4.804;2022-08-19T01:41:10;5.50;;;2.70;;
74320;SDS011;62738;45.772;4.804;2022-08-19T01:43:58;4.22;;;2.45;;
74320;SDS011;62738;45.772;4.804;2022-08-19T01:47:04;4.72;;;2.85;;
74320;SDS011;62738;45.772;4.804;2022-08-19T01:49:51;3.70;;;2.42;;
74320;SDS011;62738;45.772;4.804;2022-08-19T01:52:39;3.80;;;2.20;;
74320;SDS011;62738;45.772;4.804;2022-08-19T01:55:28;4.75;;;2.63;;
74320;SDS011;62738;45.772;4.804;2022-08-19T01:58:18;5.55;;;2.22;;
74320;SDS011;62738;45.772;4.804;2022-08-19T02:01:07;3.17;;;2.15;;
74320;SDS011;62738;45.772;4.804;2022-08-19T02:03:55;3.45;;;2.35;;
74320;SDS011;62738;45.772;4.804;2022-08-19T02:06:43;4.55;;;2.40;;
74320;SDS011;62738;45.772;4.804;2022-08-19T02:09:31;3.00;;;2.05;;
74320;SDS011;62738;45.772;4.804;2022-08-19T02:12:19;2.90;;;2.35;;
74320;SDS011;62738;45.772;4.804;2022-08-19T02:15:07;3.80;;;2.38;;
74320;SDS011;62738;45.772;4.804;2022-08-19T02:17:54;5.10;;;2.50;;
74320;SDS011;62738;45.772;4.804;2022-08-19T02:20:42;5.03;;;2.50;;
74320;SDS011;62738;45.772;4.804;2022-08-19T02:23:32;3.03;;;2.17;;
74320;SDS011;62738;45.772;4.804;2022-08-19T02:26:19;4.13;;;2.17;;
74320;SDS011;62738;45.772;4.804;2022-08-19T02:29:06;3.30;;;2.00;;
74320;SDS011;62738;45.772;4.804;2022-08-19T02:31:53;5.00;;;2.00;;
74320;SDS011;62738;45.772;4.804;2022-08-19T02:34:40;3.30;;;2.30;;
74320;SDS011;62738;45.772;4.804;2022-08-19T02:37:27;4.13;;;1.90;;
74320;SDS011;62738;45.772;4.804;2022-08-19T02:40:33;3.63;;;1.92;;
74320;SDS011;62738;45.772;4.804;2022-08-19T02:43:21;4.55;;;2.03;;
74320;SDS011;62738;45.772;4.804;2022-08-19T02:46:15;3.08;;;2.10;;
74320;SDS011;62738;45.772;4.804;2022-08-19T02:49:07;2.42;;;1.83;;
74320;SDS011;62738;45.772;4.804;2022-08-19T02:51:54;4.35;;;1.75;;
74320;SDS011;62738;45.772;4.804;2022-08-19T02:54:41;2.78;;;1.65;;
74320;SDS011;62738;45.772;4.804;2022-08-19T02:57:29;3.90;;;1.85;;
74320;SDS011;62738;45.772;4.804;2022-08-19T03:00:18;3.63;;;1.80;;
74320;SDS011;62738;45.772;4.804;2022-08-19T03:03:05;2.53;;;1.70;;
74320;SDS011;62738;45.772;4.804;2022-08-19T03:06:02;3.53;;;1.60;;
74320;SDS011;62738;45.772;4.804;2022-08-19T03:08:57;3.40;;;1.50;;
74320;SDS011;62738;45.772;4.804;2022-08-19T03:11:44;2.50;;;1.50;;
74320;SDS011;62738;45.772;4.804;2022-08-19T03:14:34;2.10;;;1.60;;
74320;SDS011;62738;45.772;4.804;2022-08-19T03:17:23;3.83;;;1.58;;
74320;SDS011;62738;45.772;4.804;2022-08-19T03:20:10;2.63;;;1.67;;
74320;SDS011;62738;45.772;4.804;2022-08-19T03:22:57;4.50;;;1.52;;
74320;SDS011;62738;45.772;4.804;2022-08-19T03:25:45;3.53;;;1.60;;
74320;SDS011;62738;45.772;4.804;2022-08-19T03:28:48;2.30;;;1.50;;
74320;SDS011;62738;45.772;4.804;2022-08-19T03:31:45;2.72;;;1.75;;
74320;SDS011;62738;45.772;4.804;2022-08-19T03:34:38;3.05;;;1.58;;
74320;SDS011;62738;45.772;4.804;2022-08-19T03:37:25;2.88;;;1.70;;
74320;SDS011;62738;45.772;4.804;2022-08-19T03:40:12;3.17;;;1.52;;
74320;SDS011;62738;45.772;4.804;2022-08-19T03:43:02;3.53;;;1.73;;
74320;SDS011;62738;45.772;4.804;2022-08-19T03:45:59;4.00;;;1.67;;
74320;SDS011;62738;45.772;4.804;2022-08-19T03:48:47;3.80;;;1.95;;
74320;SDS011;62738;45.772;4.804;2022-08-19T03:51:40;2.17;;;1.58;;
74320;SDS011;62738;45.772;4.804;2022-08-19T03:54:28;5.30;;;1.65;;
74320;SDS011;62738;45.772;4.804;2022-08-19T03:57:15;3.13;;;1.50;;
74320;SDS011;62738;45.772;4.804;2022-08-19T04:00:03;4.25;;;1.95;;
74320;SDS011;62738;45.772;4.804;2022-08-19T04:02:59;3.92;;;2.00;;
74320;SDS011;62738;45.772;4.804;2022-08-19T04:05:47;2.80;;;1.60;;
74320;SDS011;62738;45.772;4.804;2022-08-19T04:08:34;3.83;;;2.00;;
74320;SDS011;62738;45.772;4.804;2022-08-19T04:11:22;9.13;;;3.17;;
74320;SDS011;62738;45.772;4.804;2022-08-19T04:14:29;3.17;;;1.67;;
74320;SDS011;62738;45.772;4.804;2022-08-19T04:17:17;2.45;;;1.73;;
74320;SDS011;62738;45.772;4.804;2022-08-19T04:20:04;2.13;;;1.70;;
74320;SDS011;62738;45.772;4.804;2022-08-19T04:22:52;2.40;;;1.70;;
74320;SDS011;62738;45.772;4.804;2022-08-19T04:25:41;4.28;;;1.95;;
74320;SDS011;62738;45.772;4.804;2022-08-19T04:28:29;5.10;;;1.98;;
74320;SDS011;62738;45.772;4.804;2022-08-19T04:31:19;2.58;;;1.73;;
74320;SDS011;62738;45.772;4.804;2022-08-19T04:34:15;3.70;;;2.22;;
74320;SDS011;62738;45.772;4.804;2022-08-19T04:37:04;3.15;;;1.90;;
74320;SDS011;62738;45.772;4.804;2022-08-19T04:39:58;3.45;;;1.85;;
74320;SDS011;62738;45.772;4.804;2022-08-19T04:43:04;4.35;;;2.20;;
74320;SDS011;62738;45.772;4.804;2022-08-19T04:45:51;4.45;;;2.20;;
74320;SDS011;62738;45.772;4.804;2022-08-19T04:48:42;5.55;;;2.13;;
74320;SDS011;62738;45.772;4.804;2022-08-19T04:51:35;4.07;;;2.13;;
74320;SDS011;62738;45.772;4.804;2022-08-19T04:54:23;4.80;;;2.22;;
74320;SDS011;62738;45.772;4.804;2022-08-19T04:57:24;5.28;;;2.35;;
74320;SDS011;62738;45.772;4.804;2022-08-19T05:00:12;2.78;;;2.08;;
74320;SDS011;62738;45.772;4.804;2022-08-19T05:03:00;7.18;;;2.53;;
74320;SDS011;62738;45.772;4.804;2022-08-19T05:05:53;5.45;;;2.47;;
74320;SDS011;62738;45.772;4.804;2022-08-19T05:08:41;6.00;;;2.70;;
74320;SDS011;62738;45.772;4.804;2022-08-19T05:11:31;4.47;;;2.35;;
74320;SDS011;62738;45.772;4.804;2022-08-19T05:14:20;4.55;;;2.53;;
74320;SDS011;62738;45.772;4.804;2022-08-19T05:17:08;6.43;;;2.42;;
74320;SDS011;62738;45.772;4.804;2022-08-19T05:20:12;4.00;;;2.53;;
74320;SDS011;62738;45.772;4.804;2022-08-19T05:23:18;4.10;;;2.78;;
74320;SDS011;62738;45.772;4.804;2022-08-19T05:26:09;6.10;;;2.47;;
74320;SDS011;62738;45.772;4.804;2022-08-19T05:28:57;4.15;;;2.92;;
74320;SDS011;62738;45.772;4.804;2022-08-19T05:31:46;5.20;;;2.70;;
74320;SDS011;62738;45.772;4.804;2022-08-19T05:34:36;4.68;;;2.55;;
74320;SDS011;62738;45.772;4.804;2022-08-19T05:37:24;5.22;;;2.70;;
74320;SDS011;62738;45.772;4.804;2022-08-19T05:40:14;7.80;;;3.40;;
74320;SDS011;62738;45.772;4.804;2022-08-19T05:43:02;4.47;;;2.88;;
74320;SDS011;62738;45.772;4.804;2022-08-19T05:45:50;5.35;;;2.70;;
74320;SDS011;62738;45.772;4.804;2022-08-19T05:48:37;7.45;;;3.58;;
74320;SDS011;62738;45.772;4.804;2022-08-19T05:51:24;5.32;;;3.28;;
74320;SDS011;62738;45.772;4.804;2022-08-19T05:54:14;8.23;;;4.03;;
74320;SDS011;62738;45.772;4.804;2022-08-19T05:57:02;6.05;;;3.65;;
74320;SDS011;62738;45.772;4.804;2022-08-19T05:59:49;6.57;;;3.70;;
74320;SDS011;62738;45.772;4.804;2022-08-19T06:02:43;5.05;;;3.63;;
74320;SDS011;62738;45.772;4.804;2022-08-19T06:05:30;5.43;;;3.38;;
74320;SDS011;62738;45.772;4.804;2022-08-19T06:08:32;8.80;;;3.80;;
74320;SDS011;62738;45.772;4.804;2022-08-19T06:11:21;6.80;;;3.70;;
74320;SDS011;62738;45.772;4.804;2022-08-19T06:14:10;7.18;;;4.57;;
74320;SDS011;62738;45.772;4.804;2022-08-19T06:17:02;9.43;;;4.53;;
74320;SDS011;62738;45.772;4.804;2022-08-19T06:19:52;8.93;;;5.15;;
74320;SDS011;62738;45.772;4.804;2022-08-19T06:22:43;7.53;;;4.80;;
74320;SDS011;62738;45.772;4.804;2022-08-19T06:25:32;9.15;;;4.63;;
74320;SDS011;62738;45.772;4.804;2022-08-19T06:28:19;6.65;;;4.15;;
74320;SDS011;62738;45.772;4.804;2022-08-19T06:31:08;11.68;;;5.05;;
74320;SDS011;62738;45.772;4.804;2022-08-19T06:33:56;7.43;;;4.32;;
74320;SDS011;62738;45.772;4.804;2022-08-19T06:36:46;7.60;;;4.53;;
74320;SDS011;62738;45.772;4.804;2022-08-19T06:39:36;7.13;;;4.82;;
74320;SDS011;62738;45.772;4.804;2022-08-19T06:42:25;7.65;;;5.00;;
74320;SDS011;62738;45.772;4.804;2022-08-19T06:45:12;9.20;;;4.75;;
74320;SDS011;62738;45.772;4.804;2022-08-19T06:47:59;8.65;;;5.68;;
74320;SDS011;62738;45.772;4.804;2022-08-19T06:50:47;9.20;;;5.25;;
74320;SDS011;62738;45.772;4.804;2022-08-19T06:53:35;13.02;;;5.95;;
74320;SDS011;62738;45.772;4.804;2022-08-19T06:56:24;11.98;;;5.45;;
74320;SDS011;62738;45.772;4.804;2022-08-19T06:59:19;7.88;;;5.53;;
74320;SDS011;62738;45.772;4.804;2022-08-19T07:02:08;9.23;;;6.30;;
74320;SDS011;62738;45.772;4.804;2022-08-19T07:04:56;9.90;;;5.72;;
74320;SDS011;62738;45.772;4.804;2022-08-19T07:07:46;10.93;;;6.50;;
74320;SDS011;62738;45.772;4.804;2022-08-19T07:10:33;8.50;;;5.90;;
74320;SDS011;62738;45.772;4.804;2022-08-19T07:13:21;11.77;;;6.70;;
74320;SDS011;62738;45.772;4.804;2022-08-19T07:16:11;13.70;;;6.50;;
74320;SDS011;62738;45.772;4.804;2022-08-19T07:19:05;12.55;;;6.90;;
74320;SDS011;62738;45.772;4.804;2022-08-19T07:22:02;10.00;;;6.57;;
74320;SDS011;62738;45.772;4.804;2022-08-19T07:24:51;10.82;;;6.93;;
74320;SDS011;62738;45.772;4.804;2022-08-19T07:27:39;9.40;;;6.70;;
74320;SDS011;62738;45.772;4.804;2022-08-19T07:30:26;7.93;;;6.35;;
74320;SDS011;62738;45.772;4.804;2022-08-19T07:33:13;11.20;;;7.60;;
74320;SDS011;62738;45.772;4.804;2022-08-19T07:36:00;10.38;;;6.82;;
74320;SDS011;62738;45.772;4.804;2022-08-19T07:38:48;8.68;;;6.55;;
74320;SDS011;62738;45.772;4.804;2022-08-19T07:41:36;13.68;;;7.53;;
74320;SDS011;62738;45.772;4.804;2022-08-19T07:44:24;12.18;;;6.78;;
74320;SDS011;62738;45.772;4.804;2022-08-19T07:47:11;11.05;;;7.28;;
74320;SDS011;62738;45.772;4.804;2022-08-19T07:50:20;12.15;;;6.75;;
74320;SDS011;62738;45.772;4.804;2022-08-19T07:53:07;12.75;;;7.55;;
74320;SDS011;62738;45.772;4.804;2022-08-19T07:55:54;10.40;;;6.97;;
74320;SDS011;62738;45.772;4.804;2022-08-19T07:58:43;11.32;;;7.43;;
74320;SDS011;62738;45.772;4.804;2022-08-19T08:01:32;11.50;;;7.32;;
74320;SDS011;62738;45.772;4.804;2022-08-19T08:04:27;10.70;;;6.57;;
74320;SDS011;62738;45.772;4.804;2022-08-19T08:07:34;13.20;;;7.50;;
74320;SDS011;62738;45.772;4.804;2022-08-19T08:10:39;11.68;;;6.30;;
74320;SDS011;62738;45.772;4.804;2022-08-19T08:13:27;10.75;;;6.80;;
74320;SDS011;62738;45.772;4.804;2022-08-19T08:16:14;12.35;;;6.55;;
74320;SDS011;62738;45.772;4.804;2022-08-19T08:19:03;11.75;;;7.38;;
74320;SDS011;62738;45.772;4.804;2022-08-19T08:22:00;11.00;;;7.65;;
74320;SDS011;62738;45.772;4.804;2022-08-19T08:24:48;11.77;;;8.30;;
74320;SDS011;62738;45.772;4.804;2022-08-19T08:27:36;11.68;;;8.40;;
74320;SDS011;62738;45.772;4.804;2022-08-19T08:30:26;14.45;;;8.93;;
74320;SDS011;62738;45.772;4.804;2022-08-19T08:33:19;15.65;;;9.93;;
74320;SDS011;62738;45.772;4.804;2022-08-19T08:36:19;14.18;;;9.68;;
74320;SDS011;62738;45.772;4.804;2022-08-19T08:39:10;15.63;;;9.57;;
74320;SDS011;62738;45.772;4.804;2022-08-19T08:42:36;15.55;;;10.20;;
74320;SDS011;62738;45.772;4.804;2022-08-19T08:45:21;13.70;;;9.23;;
74320;SDS011;62738;45.772;4.804;2022-08-19T08:51:42;15.77;;;9.20;;
74320;SDS011;62738;45.772;4.804;2022-08-19T08:54:46;13.77;;;9.02;;
74320;SDS011;62738;45.772;4.804;2022-08-19T08:57:44;12.25;;;9.68;;
74320;SDS011;62738;45.772;4.804;2022-08-19T09:00:38;12.15;;;8.52;;
74320;SDS011;62738;45.772;4.804;2022-08-19T09:03:29;14.52;;;9.50;;
74320;SDS011;62738;45.772;4.804;2022-08-19T09:09:24;13.35;;;9.25;;
74320;SDS011;62738;45.772;4.804;2022-08-19T09:12:25;12.70;;;10.15;;
74320;SDS011;62738;45.772;4.804;2022-08-19T09:15:42;15.77;;;10.77;;
74320;SDS011;62738;45.772;4.804;2022-08-19T09:18:43;17.20;;;11.52;;
74320;SDS011;62738;45.772;4.804;2022-08-19T09:21:33;12.95;;;9.85;;
74320;SDS011;62738;45.772;4.804;2022-08-19T09:24:26;18.77;;;10.80;;
74320;SDS011;62738;45.772;4.804;2022-08-19T09:27:16;14.80;;;9.32;;
74320;SDS011;62738;45.772;4.804;2022-08-19T09:30:05;14.35;;;10.90;;
74320;SDS011;62738;45.772;4.804;2022-08-19T09:32:54;15.57;;;10.18;;
74320;SDS011;62738;45.772;4.804;2022-08-19T09:35:42;16.25;;;10.98;;
74320;SDS011;62738;45.772;4.804;2022-08-19T09:38:39;16.05;;;10.65;;
74320;SDS011;62738;45.772;4.804;2022-08-19T09:41:29;19.98;;;10.77;;
74320;SDS011;62738;45.772;4.804;2022-08-19T09:44:16;20.00;;;11.95;;
74320;SDS011;62738;45.772;4.804;2022-08-19T09:47:04;18.90;;;11.40;;
74320;SDS011;62738;45.772;4.804;2022-08-19T09:49:51;16.08;;;11.75;;
74320;SDS011;62738;45.772;4.804;2022-08-19T09:52:39;15.02;;;10.10;;
74320;SDS011;62738;45.772;4.804;2022-08-19T09:55:43;16.02;;;11.13;;
74320;SDS011;62738;45.772;4.804;2022-08-19T09:58:31;15.60;;;11.45;;
74320;SDS011;62738;45.772;4.804;2022-08-19T10:01:23;14.93;;;11.23;;
74320;SDS011;62738;45.772;4.804;2022-08-19T10:04:12;16.63;;;11.55;;
74320;SDS011;62738;45.772;4.804;2022-08-19T10:07:06;15.73;;;11.13;;
74320;SDS011;62738;45.772;4.804;2022-08-19T10:09:53;14.80;;;10.90;;
74320;SDS011;62738;45.772;4.804;2022-08-19T10:12:41;14.90;;;10.02;;
74320;SDS011;62738;45.772;4.804;2022-08-19T10:15:34;16.42;;;11.63;;
74320;SDS011;62738;45.772;4.804;2022-08-19T10:18:33;13.98;;;11.00;;
74320;SDS011;62738;45.772;4.804;2022-08-19T10:21:25;12.40;;;10.73;;
74320;SDS011;62738;45.772;4.804;2022-08-19T10:24:17;11.25;;;9.85;;
74320;SDS011;62738;45.772;4.804;2022-08-19T10:27:05;12.98;;;9.38;;
74320;SDS011;62738;45.772;4.804;2022-08-19T10:29:54;14.48;;;8.82;;
74320;SDS011;62738;45.772;4.804;2022-08-19T10:32:44;10.27;;;8.15;;
74320;SDS011;62738;45.772;4.804;2022-08-19T10:35:32;13.27;;;9.30;;
74320;SDS011;62738;45.772;4.804;2022-08-19T10:38:28;15.68;;;8.15;;
74320;SDS011;62738;45.772;4.804;2022-08-19T10:41:18;11.43;;;8.10;;
74320;SDS011;62738;45.772;4.804;2022-08-19T10:44:10;10.48;;;7.63;;
74320;SDS011;62738;45.772;4.804;2022-08-19T10:46:59;9.02;;;7.25;;
74320;SDS011;62738;45.772;4.804;2022-08-19T10:49:48;8.80;;;7.07;;
74320;SDS011;62738;45.772;4.804;2022-08-19T10:52:57;8.57;;;6.30;;
74320;SDS011;62738;45.772;4.804;2022-08-19T10:55:55;7.25;;;5.93;;
74320;SDS011;62738;45.772;4.804;2022-08-19T10:59:00;7.30;;;5.50;;
74320;SDS011;62738;45.772;4.804;2022-08-19T11:01:50;8.05;;;5.60;;
74320;SDS011;62738;45.772;4.804;2022-08-19T11:04:41;7.13;;;5.50;;
74320;SDS011;62738;45.772;4.804;2022-08-19T11:07:28;6.70;;;5.88;;
74320;SDS011;62738;45.772;4.804;2022-08-19T11:10:15;7.28;;;6.20;;
74320;SDS011;62738;45.772;4.804;2022-08-19T11:13:07;12.18;;;6.10;;
74320;SDS011;62738;45.772;4.804;2022-08-19T11:15:59;10.18;;;5.82;;
74320;SDS011;62738;45.772;4.804;2022-08-19T11:18:54;7.63;;;5.93;;
74320;SDS011;62738;45.772;4.804;2022-08-19T11:21:45;6.65;;;5.72;;
74320;SDS011;62738;45.772;4.804;2022-08-19T11:24:35;7.00;;;5.57;;
74320;SDS011;62738;45.772;4.804;2022-08-19T11:27:23;8.40;;;5.30;;
74320;SDS011;62738;45.772;4.804;2022-08-19T11:30:10;7.20;;;5.38;;
74320;SDS011;62738;45.772;4.804;2022-08-19T11:35:47;8.70;;;5.63;;
74320;SDS011;62738;45.772;4.804;2022-08-19T11:38:36;8.00;;;5.68;;
74320;SDS011;62738;45.772;4.804;2022-08-19T11:41:23;9.48;;;5.63;;
74320;SDS011;62738;45.772;4.804;2022-08-19T11:44:11;6.85;;;5.68;;
74320;SDS011;62738;45.772;4.804;2022-08-19T11:47:00;7.03;;;5.22;;
74320;SDS011;62738;45.772;4.804;2022-08-19T11:49:54;7.63;;;5.97;;
74320;SDS011;62738;45.772;4.804;2022-08-19T11:52:42;8.18;;;5.00;;
74320;SDS011;62738;45.772;4.804;2022-08-19T11:55:30;9.80;;;5.68;;
74320;SDS011;62738;45.772;4.804;2022-08-19T11:58:18;7.35;;;5.68;;
74320;SDS011;62738;45.772;4.804;2022-08-19T12:01:06;7.45;;;5.32;;
74320;SDS011;62738;45.772;4.804;2022-08-19T12:04:02;7.78;;;5.70;;
74320;SDS011;62738;45.772;4.804;2022-08-19T12:06:53;7.72;;;5.70;;
74320;SDS011;62738;45.772;4.804;2022-08-19T12:09:40;10.52;;;5.68;;
74320;SDS011;62738;45.772;4.804;2022-08-19T12:12:28;8.65;;;5.65;;
74320;SDS011;62738;45.772;4.804;2022-08-19T12:15:15;8.95;;;5.93;;
74320;SDS011;62738;45.772;4.804;2022-08-19T12:18:03;8.70;;;5.72;;
74320;SDS011;62738;45.772;4.804;2022-08-19T12:20:51;7.57;;;5.63;;
74320;SDS011;62738;45.772;4.804;2022-08-19T12:23:40;7.78;;;5.63;;
74320;SDS011;62738;45.772;4.804;2022-08-19T12:26:28;7.53;;;5.40;;
74320;SDS011;62738;45.772;4.804;2022-08-19T12:29:16;9.10;;;5.50;;
74320;SDS011;62738;45.772;4.804;2022-08-19T12:32:09;9.30;;;5.50;;
74320;SDS011;62738;45.772;4.804;2022-08-19T12:34:57;6.85;;;5.20;;
74320;SDS011;62738;45.772;4.804;2022-08-19T12:37:45;7.38;;;5.10;;
74320;SDS011;62738;45.772;4.804;2022-08-19T12:40:46;7.57;;;5.30;;
74320;SDS011;62738;45.772;4.804;2022-08-19T12:43:35;8.95;;;5.05;;
74320;SDS011;62738;45.772;4.804;2022-08-19T12:46:23;10.52;;;5.20;;
74320;SDS011;62738;45.772;4.804;2022-08-19T12:49:11;7.13;;;5.07;;
74320;SDS011;62738;45.772;4.804;2022-08-19T12:52:18;8.02;;;4.57;;
74320;SDS011;62738;45.772;4.804;2022-08-19T12:55:08;7.43;;;4.93;;
74320;SDS011;62738;45.772;4.804;2022-08-19T12:57:57;6.75;;;4.60;;
74320;SDS011;62738;45.772;4.804;2022-08-19T13:00:44;7.20;;;3.95;;
74320;SDS011;62738;45.772;4.804;2022-08-19T13:03:31;6.18;;;4.10;;
74320;SDS011;62738;45.772;4.804;2022-08-19T13:06:18;7.57;;;3.67;;
74320;SDS011;62738;45.772;4.804;2022-08-19T13:09:06;6.20;;;4.00;;
74320;SDS011;62738;45.772;4.804;2022-08-19T13:11:53;5.60;;;3.88;;
74320;SDS011;62738;45.772;4.804;2022-08-19T13:14:40;6.57;;;4.03;;
74320;SDS011;62738;45.772;4.804;2022-08-19T13:17:27;5.05;;;3.45;;
74320;SDS011;62738;45.772;4.804;2022-08-19T13:20:15;7.03;;;3.70;;
74320;SDS011;62738;45.772;4.804;2022-08-19T13:23:03;4.75;;;3.38;;
74320;SDS011;62738;45.772;4.804;2022-08-19T13:25:57;4.65;;;3.33;;
74320;SDS011;62738;45.772;4.804;2022-08-19T13:28:45;5.80;;;3.38;;
74320;SDS011;62738;45.772;4.804;2022-08-19T13:31:51;4.75;;;3.30;;
74320;SDS011;62738;45.772;4.804;2022-08-19T13:35:03;5.60;;;3.17;;
74320;SDS011;62738;45.772;4.804;2022-08-19T13:37:50;3.80;;;3.20;;
74320;SDS011;62738;45.772;4.804;2022-08-19T13:40:39;5.40;;;3.25;;
74320;SDS011;62738;45.772;4.804;2022-08-19T13:43:27;4.30;;;3.22;;
74320;SDS011;62738;45.772;4.804;2022-08-19T13:46:14;6.90;;;3.50;;
74320;SDS011;62738;45.772;4.804;2022-08-19T13:49:01;5.05;;;2.80;;
74320;SDS011;62738;45.772;4.804;2022-08-19T13:51:48;10.02;;;3.00;;
74320;SDS011;62738;45.772;4.804;2022-08-19T13:54:35;6.88;;;2.90;;
74320;SDS011;62738;45.772;4.804;2022-08-19T13:57:22;4.88;;;3.40;;
74320;SDS011;62738;45.772;4.804;2022-08-19T14:00:11;4.35;;;2.78;;
74320;SDS011;62738;45.772;4.804;2022-08-19T14:03:00;4.75;;;2.72;;
74320;SDS011;62738;45.772;4.804;2022-08-19T14:05:54;6.07;;;2.50;;
74320;SDS011;62738;45.772;4.804;2022-08-19T14:08:41;4.65;;;2.67;;
74320;SDS011;62738;45.772;4.804;2022-08-19T14:11:31;3.10;;;2.20;;
74320;SDS011;62738;45.772;4.804;2022-08-19T14:14:19;3.97;;;2.50;;
74320;SDS011;62738;45.772;4.804;2022-08-19T14:17:06;6.25;;;2.40;;
74320;SDS011;62738;45.772;4.804;2022-08-19T14:19:57;4.53;;;2.30;;
74320;SDS011;62738;45.772;4.804;2022-08-19T14:22:55;4.30;;;2.22;;
74320;SDS011;62738;45.772;4.804;2022-08-19T14:25:42;4.47;;;2.25;;
74320;SDS011;62738;45.772;4.804;2022-08-19T14:28:30;2.63;;;1.60;;
74320;SDS011;62738;45.772;4.804;2022-08-19T14:31:18;2.47;;;1.70;;
74320;SDS011;62738;45.772;4.804;2022-08-19T14:34:06;3.47;;;1.60;;
74320;SDS011;62738;45.772;4.804;2022-08-19T14:36:53;3.20;;;1.98;;
74320;SDS011;62738;45.772;4.804;2022-08-19T14:39:41;4.70;;;1.90;;
74320;SDS011;62738;45.772;4.804;2022-08-19T14:42:28;2.97;;;1.50;;
74320;SDS011;62738;45.772;4.804;2022-08-19T14:45:15;5.93;;;1.70;;
74320;SDS011;62738;45.772;4.804;2022-08-19T14:48:03;3.15;;;1.75;;
74320;SDS011;62738;45.772;4.804;2022-08-19T14:50:50;5.43;;;1.60;;
74320;SDS011;62738;45.772;4.804;2022-08-19T14:53:38;1.60;;;1.40;;
74320;SDS011;62738;45.772;4.804;2022-08-19T14:56:27;3.00;;;1.45;;
74320;SDS011;62738;45.772;4.804;2022-08-19T14:59:15;1.73;;;1.38;;
74320;SDS011;62738;45.772;4.804;2022-08-19T15:02:03;8.88;;;1.73;;
74320;SDS011;62738;45.772;4.804;2022-08-19T15:05:10;1.85;;;1.20;;
74320;SDS011;62738;45.772;4.804;2022-08-19T15:07:58;2.53;;;1.20;;
74320;SDS011;62738;45.772;4.804;2022-08-19T15:10:50;2.10;;;1.20;;
74320;SDS011;62738;45.772;4.804;2022-08-19T15:13:37;3.78;;;1.10;;
74320;SDS011;62738;45.772;4.804;2022-08-19T15:16:26;3.20;;;1.13;;
74320;SDS011;62738;45.772;4.804;2022-08-19T15:19:13;1.38;;;1.02;;
74320;SDS011;62738;45.772;4.804;2022-08-19T15:22:00;3.10;;;1.10;;
74320;SDS011;62738;45.772;4.804;2022-08-19T15:24:48;2.90;;;1.30;;
74320;SDS011;62738;45.772;4.804;2022-08-19T15:27:35;2.53;;;1.15;;
74320;SDS011;62738;45.772;4.804;2022-08-19T15:30:24;2.08;;;1.10;;
74320;SDS011;62738;45.772;4.804;2022-08-19T15:33:13;1.67;;;1.30;;
74320;SDS011;62738;45.772;4.804;2022-08-19T15:36:00;2.33;;;1.30;;
74320;SDS011;62738;45.772;4.804;2022-08-19T15:38:48;1.67;;;1.40;;
74320;SDS011;62738;45.772;4.804;2022-08-19T15:41:37;1.95;;;1.40;;
74320;SDS011;62738;45.772;4.804;2022-08-19T15:44:25;2.17;;;1.30;;
74320;SDS011;62738;45.772;4.804;2022-08-19T15:47:13;2.05;;;1.20;;
74320;SDS011;62738;45.772;4.804;2022-08-19T15:50:02;3.25;;;1.20;;
74320;SDS011;62738;45.772;4.804;2022-08-19T15:52:57;2.40;;;1.40;;
74320;SDS011;62738;45.772;4.804;2022-08-19T15:55:46;2.05;;;1.20;;
74320;SDS011;62738;45.772;4.804;2022-08-19T15:58:34;1.73;;;1.20;;
74320;SDS011;62738;45.772;4.804;2022-08-19T16:01:40;2.63;;;1.13;;
74320;SDS011;62738;45.772;4.804;2022-08-19T16:04:46;3.42;;;1.10;;
74320;SDS011;62738;45.772;4.804;2022-08-19T16:07:51;3.03;;;1.40;;
74320;SDS011;62738;45.772;4.804;2022-08-19T16:10:38;2.33;;;1.15;;
74320;SDS011;62738;45.772;4.804;2022-08-19T16:13:26;1.48;;;1.20;;
74320;SDS011;62738;45.772;4.804;2022-08-19T16:16:13;2.65;;;1.23;;
74320;SDS011;62738;45.772;4.804;2022-08-19T16:19:00;2.53;;;1.20;;
74320;SDS011;62738;45.772;4.804;2022-08-19T16:21:50;2.10;;;1.30;;
74320;SDS011;62738;45.772;4.804;2022-08-19T16:24:38;1.77;;;1.20;;
74320;SDS011;62738;45.772;4.804;2022-08-19T16:27:25;3.42;;;1.20;;
74320;SDS011;62738;45.772;4.804;2022-08-19T16:30:12;1.20;;;1.00;;
74320;SDS011;62738;45.772;4.804;2022-08-19T16:32:59;1.45;;;1.00;;
74320;SDS011;62738;45.772;4.804;2022-08-19T16:35:46;2.22;;;1.10;;
74320;SDS011;62738;45.772;4.804;2022-08-19T16:38:53;1.50;;;1.13;;
74320;SDS011;62738;45.772;4.804;2022-08-19T16:41:40;3.10;;;0.98;;
74320;SDS011;62738;45.772;4.804;2022-08-19T16:44:28;1.20;;;0.80;;
74320;SDS011;62738;45.772;4.804;2022-08-19T16:47:15;0.93;;;0.90;;
74320;SDS011;62738;45.772;4.804;2022-08-19T16:50:03;1.27;;;1.00;;
74320;SDS011;62738;45.772;4.804;2022-08-19T16:52:53;1.05;;;0.65;;
74320;SDS011;62738;45.772;4.804;2022-08-19T16:55:40;1.27;;;1.00;;
74320;SDS011;62738;45.772;4.804;2022-08-19T16:58:27;3.03;;;0.90;;
74320;SDS011;62738;45.772;4.804;2022-08-19T17:01:15;0.80;;;0.80;;
74320;SDS011;62738;45.772;4.804;2022-08-19T17:04:03;1.35;;;0.70;;
74320;SDS011;62738;45.772;4.804;2022-08-19T17:06:50;2.45;;;1.20;;
74320;SDS011;62738;45.772;4.804;2022-08-19T17:09:37;1.10;;;0.50;;
74320;SDS011;62738;45.772;4.804;2022-08-19T17:12:24;0.82;;;0.70;;